sensor_id;sensor_type;location;lat;lon;timestamp;pressure;altitude;pressure_sealevel;temperature;humidity
13011;BME280;6786;57.632;11.962;2023-03-04T00:00:40;100578.91;;;18.46;37.00
13011;BME280;6786;57.632;11.962;2023-03-04T00:03:12;100573.56;;;18.46;36.98
13011;BME280;6786;57.632;11.962;2023-03-04T00:05:42;100577.22;;;18.45;37.36
13011;BME280;6786;57.632;11.962;2023-03-04T00:08:11;100574.69;;;18.43;37.07
13011;BME280;6786;57.632;11.962;2023-03-04T00:10:39;100576.38;;;18.44;37.09
13011;BME280;6786;57.632;11.962;2023-03-04T00:13:08;100569.22;;;18.45;37.11
13011;BME280;6786;57.632;11.962;2023-03-04T00:15:36;100511.06;;;17.96;37.04
13011;BME280;6786;57.632;11.962;2023-03-04T00:18:04;100584.28;;;18.46;37.18
13011;BME280;6786;57.632;11.962;2023-03-04T00:20:32;100583.28;;;18.47;36.88
13011;BME280;6786;57.632;11.962;2023-03-04T00:23:00;100578.91;;;18.46;37.12
13011;BME280;6786;57.632;11.962;2023-03-04T00:25:30;100584.28;;;18.46;37.29
13011;BME280;6786;57.632;11.962;2023-03-04T00:27:59;100587.94;;;18.45;37.05
13011;BME280;6786;57.632;11.962;2023-03-04T00:30:27;100584.28;;;18.46;37.05
13011;BME280;6786;57.632;11.962;2023-03-04T00:32:55;100589.63;;;18.46;36.99
13011;BME280;6786;57.632;11.962;2023-03-04T00:35:23;100458.31;;;17.68;37.05
13011;BME280;6786;57.632;11.962;2023-03-04T00:37:51;100593.28;;;18.45;37.07
13011;BME280;6786;57.632;11.962;2023-03-04T00:40:19;100583.63;;;18.33;37.03
13011;BME280;6786;57.632;11.962;2023-03-04T00:42:49;100587.63;;;18.38;37.14
13011;BME280;6786;57.632;11.962;2023-03-04T00:45:17;100609.34;;;18.45;37.02
13011;BME280;6786;57.632;11.962;2023-03-04T00:47:45;100606.66;;;18.45;37.08
13011;BME280;6786;57.632;11.962;2023-03-04T00:50:13;100605.69;;;18.46;37.12
13011;BME280;6786;57.632;11.962;2023-03-04T00:52:41;100605.69;;;18.46;36.92
13011;BME280;6786;57.632;11.962;2023-03-04T00:55:09;100600.59;;;18.43;37.08
13011;BME280;6786;57.632;11.962;2023-03-04T00:57:37;100603.28;;;18.43;36.95
13011;BME280;6786;57.632;11.962;2023-03-04T01:00:08;100612.03;;;18.45;37.02
13011;BME280;6786;57.632;11.962;2023-03-04T01:02:37;100627.88;;;18.37;37.17
13011;BME280;6786;57.632;11.962;2023-03-04T01:05:06;100620.06;;;18.45;36.96
13011;BME280;6786;57.632;11.962;2023-03-04T01:07:34;100617.66;;;18.42;36.94
13011;BME280;6786;57.632;11.962;2023-03-04T01:10:04;100540.63;;;17.95;36.98
13011;BME280;6786;57.632;11.962;2023-03-04T01:12:32;100621.16;;;18.42;37.00
13011;BME280;6786;57.632;11.962;2023-03-04T01:15:00;100457.97;;;17.41;37.14
13011;BME280;6786;57.632;11.962;2023-03-04T01:17:29;100629.03;;;18.44;36.99
13011;BME280;6786;57.632;11.962;2023-03-04T01:19:57;100639.75;;;18.44;36.94
13011;BME280;6786;57.632;11.962;2023-03-04T01:22:26;100638.06;;;18.43;37.04
13011;BME280;6786;57.632;11.962;2023-03-04T01:24:54;100638.06;;;18.43;36.96
13011;BME280;6786;57.632;11.962;2023-03-04T01:27:22;100652.16;;;18.45;37.03
13011;BME280;6786;57.632;11.962;2023-03-04T01:29:50;100653.97;;;18.44;37.06
13011;BME280;6786;57.632;11.962;2023-03-04T01:32:18;100661.16;;;18.44;36.88
13011;BME280;6786;57.632;11.962;2023-03-04T01:34:48;100659.19;;;18.46;37.08
13011;BME280;6786;57.632;11.962;2023-03-04T01:37:16;100664.56;;;18.46;36.91
13011;BME280;6786;57.632;11.962;2023-03-04T01:39:44;100662.88;;;18.45;36.82
13011;BME280;6786;57.632;11.962;2023-03-04T01:42:17;100659.19;;;18.46;36.82
13011;BME280;6786;57.632;11.962;2023-03-04T01:44:47;100658.34;;;18.45;36.87
13011;BME280;6786;57.632;11.962;2023-03-04T01:47:16;100642.75;;;18.30;36.66
13011;BME280;6786;57.632;11.962;2023-03-04T01:49:49;100668.22;;;18.45;36.69
13011;BME280;6786;57.632;11.962;2023-03-04T01:52:20;100593.53;;;17.91;36.67
13011;BME280;6786;57.632;11.962;2023-03-04T01:54:48;100674.53;;;18.44;36.77
13011;BME280;6786;57.632;11.962;2023-03-04T01:57:18;100677.22;;;18.44;36.83
13011;BME280;6786;57.632;11.962;2023-03-04T01:59:47;100677.47;;;18.41;36.80
13011;BME280;6786;57.632;11.962;2023-03-04T02:02:34;100672.72;;;18.44;36.71
13011;BME280;6786;57.632;11.962;2023-03-04T02:05:04;100678.94;;;18.45;36.68
13011;BME280;6786;57.632;11.962;2023-03-04T02:07:33;100673.56;;;18.45;36.58
13011;BME280;6786;57.632;11.962;2023-03-04T02:10:02;100676.50;;;18.42;36.66
13011;BME280;6786;57.632;11.962;2023-03-04T02:12:30;100686.94;;;18.45;36.55
13011;BME280;6786;57.632;11.962;2023-03-04T02:14:58;100684.28;;;18.45;36.58
13011;BME280;6786;57.632;11.962;2023-03-04T02:17:27;100685.22;;;18.44;36.59
13011;BME280;6786;57.632;11.962;2023-03-04T02:19:59;100679.88;;;18.44;36.54
13011;BME280;6786;57.632;11.962;2023-03-04T02:22:32;100679.88;;;18.44;36.56
13011;BME280;6786;57.632;11.962;2023-03-04T02:25:07;100682.56;;;18.44;36.48
13011;BME280;6786;57.632;11.962;2023-03-04T02:27:39;100677.22;;;18.44;36.46
13011;BME280;6786;57.632;11.962;2023-03-04T02:30:10;100685.22;;;18.44;36.44
13011;BME280;6786;57.632;11.962;2023-03-04T02:32:38;100680.88;;;18.43;36.46
13011;BME280;6786;57.632;11.962;2023-03-04T02:35:13;100682.56;;;18.44;36.41
13011;BME280;6786;57.632;11.962;2023-03-04T02:37:43;100678.94;;;18.45;36.54
13011;BME280;6786;57.632;11.962;2023-03-04T02:40:14;100682.56;;;18.44;36.52
13011;BME280;6786;57.632;11.962;2023-03-04T02:42:45;100678.06;;;18.44;36.51
13011;BME280;6786;57.632;11.962;2023-03-04T02:45:34;100689.63;;;18.45;36.33
13011;BME280;6786;57.632;11.962;2023-03-04T02:48:03;100687.91;;;18.44;36.52
13011;BME280;6786;57.632;11.962;2023-03-04T02:50:34;100698.63;;;18.44;36.40
13011;BME280;6786;57.632;11.962;2023-03-04T02:53:03;100527.25;;;17.33;36.43
13011;BME280;6786;57.632;11.962;2023-03-04T02:55:31;100691.56;;;18.43;36.51
13011;BME280;6786;57.632;11.962;2023-03-04T02:58:01;100698.88;;;18.41;36.56
13011;BME280;6786;57.632;11.962;2023-03-04T03:00:30;100701.41;;;18.42;36.50
13011;BME280;6786;57.632;11.962;2023-03-04T03:02:58;100703.97;;;18.44;36.55
13011;BME280;6786;57.632;11.962;2023-03-04T03:05:28;100612.91;;;17.84;36.43
13011;BME280;6786;57.632;11.962;2023-03-04T03:07:57;100712.97;;;18.43;36.54
13011;BME280;6786;57.632;11.962;2023-03-04T03:10:26;100716.66;;;18.42;36.45
13011;BME280;6786;57.632;11.962;2023-03-04T03:12:55;100718.34;;;18.43;36.50
13011;BME280;6786;57.632;11.962;2023-03-04T03:15:24;100721.00;;;18.43;36.49
13011;BME280;6786;57.632;11.962;2023-03-04T03:17:52;100721.00;;;18.43;36.43
13011;BME280;6786;57.632;11.962;2023-03-04T03:20:20;100626.97;;;17.86;36.49
13011;BME280;6786;57.632;11.962;2023-03-04T03:22:48;100726.22;;;18.44;36.44
13011;BME280;6786;57.632;11.962;2023-03-04T03:25:16;100730.72;;;18.44;36.36
13011;BME280;6786;57.632;11.962;2023-03-04T03:27:45;100736.06;;;18.44;36.54
13011;BME280;6786;57.632;11.962;2023-03-04T03:30:13;100738.75;;;18.44;36.37
13011;BME280;6786;57.632;11.962;2023-03-04T03:32:43;100736.34;;;18.41;36.30
13011;BME280;6786;57.632;11.962;2023-03-04T03:35:11;100692.72;;;18.09;36.34
13011;BME280;6786;57.632;11.962;2023-03-04T03:37:40;100738.06;;;18.42;36.29
13011;BME280;6786;57.632;11.962;2023-03-04T03:40:09;100749.59;;;18.42;36.19
13011;BME280;6786;57.632;11.962;2023-03-04T03:42:38;100743.41;;;18.42;36.14
13011;BME280;6786;57.632;11.962;2023-03-04T03:45:07;100655.41;;;17.87;36.13
13011;BME280;6786;57.632;11.962;2023-03-04T03:47:35;100745.09;;;18.43;36.09
13011;BME280;6786;57.632;11.962;2023-03-04T03:50:06;100745.09;;;18.43;36.15
13011;BME280;6786;57.632;11.962;2023-03-04T03:52:34;100745.34;;;18.40;36.25
13011;BME280;6786;57.632;11.962;2023-03-04T03:55:03;100755.81;;;18.43;36.06
13011;BME280;6786;57.632;11.962;2023-03-04T03:57:31;100760.16;;;18.44;35.96
13011;BME280;6786;57.632;11.962;2023-03-04T03:59:59;100756.66;;;18.43;36.12
13011;BME280;6786;57.632;11.962;2023-03-04T04:02:27;100769.06;;;18.44;36.04
13011;BME280;6786;57.632;11.962;2023-03-04T04:04:56;100761.16;;;18.43;35.84
13011;BME280;6786;57.632;11.962;2023-03-04T04:07:25;100758.59;;;18.41;35.87
13011;BME280;6786;57.632;11.962;2023-03-04T04:09:53;100759.47;;;18.42;35.91
13011;BME280;6786;57.632;11.962;2023-03-04T04:12:21;100766.50;;;18.43;35.76
13011;BME280;6786;57.632;11.962;2023-03-04T04:14:49;100771.84;;;18.43;35.91
13011;BME280;6786;57.632;11.962;2023-03-04T04:17:17;100764.81;;;18.42;35.81
13011;BME280;6786;57.632;11.962;2023-03-04T04:19:45;100764.81;;;18.42;35.91
13011;BME280;6786;57.632;11.962;2023-03-04T04:22:16;100765.66;;;18.42;35.88
13011;BME280;6786;57.632;11.962;2023-03-04T04:24:46;100766.50;;;18.43;35.89
13011;BME280;6786;57.632;11.962;2023-03-04T04:27:14;100764.81;;;18.42;35.83
13011;BME280;6786;57.632;11.962;2023-03-04T04:29:42;100760.56;;;18.39;35.81
13011;BME280;6786;57.632;11.962;2023-03-04T04:32:11;100764.81;;;18.42;35.65
13011;BME280;6786;57.632;11.962;2023-03-04T04:34:39;100775.53;;;18.42;35.83
13011;BME280;6786;57.632;11.962;2023-03-04T04:37:07;100774.53;;;18.43;35.73
13011;BME280;6786;57.632;11.962;2023-03-04T04:39:36;100776.34;;;18.42;35.60
13011;BME280;6786;57.632;11.962;2023-03-04T04:42:05;100765.66;;;18.42;35.63
13011;BME280;6786;57.632;11.962;2023-03-04T04:44:33;100770.16;;;18.42;35.61
13011;BME280;6786;57.632;11.962;2023-03-04T04:47:01;100775.53;;;18.42;35.56
13011;BME280;6786;57.632;11.962;2023-03-04T04:49:30;100597.28;;;17.36;35.54
13011;BME280;6786;57.632;11.962;2023-03-04T04:51:58;100775.53;;;18.42;35.61
13011;BME280;6786;57.632;11.962;2023-03-04T04:54:26;100778.19;;;18.42;35.50
13011;BME280;6786;57.632;11.962;2023-03-04T04:56:54;100770.44;;;18.39;35.42
13011;BME280;6786;57.632;11.962;2023-03-04T04:59:23;100791.56;;;18.42;35.44
13011;BME280;6786;57.632;11.962;2023-03-04T05:01:52;100796.94;;;18.42;35.47
13011;BME280;6786;57.632;11.962;2023-03-04T05:04:20;100805.91;;;18.41;35.57
13011;BME280;6786;57.632;11.962;2023-03-04T05:06:48;100796.94;;;18.42;35.38
13011;BME280;6786;57.632;11.962;2023-03-04T05:09:16;100812.00;;;18.43;35.40
13011;BME280;6786;57.632;11.962;2023-03-04T05:11:45;100806.66;;;18.43;35.37
13011;BME280;6786;57.632;11.962;2023-03-04T05:14:13;100810.31;;;18.42;35.30
13011;BME280;6786;57.632;11.962;2023-03-04T05:16:42;100820.03;;;18.43;35.41
13011;BME280;6786;57.632;11.962;2023-03-04T05:19:11;100826.38;;;18.42;35.37
13011;BME280;6786;57.632;11.962;2023-03-04T05:21:39;100818.34;;;18.42;35.29
13011;BME280;6786;57.632;11.962;2023-03-04T05:24:07;100834.41;;;18.42;35.40
13011;BME280;6786;57.632;11.962;2023-03-04T05:26:35;100839.75;;;18.42;35.30
13011;BME280;6786;57.632;11.962;2023-03-04T05:29:04;100839.75;;;18.42;35.42
13011;BME280;6786;57.632;11.962;2023-03-04T05:31:32;100845.34;;;18.39;35.30
13011;BME280;6786;57.632;11.962;2023-03-04T05:34:01;100850.44;;;18.42;35.37
13011;BME280;6786;57.632;11.962;2023-03-04T05:36:29;100861.16;;;18.42;35.26
13011;BME280;6786;57.632;11.962;2023-03-04T05:38:57;100867.34;;;18.42;35.25
13011;BME280;6786;57.632;11.962;2023-03-04T05:41:26;100867.34;;;18.42;35.19
13011;BME280;6786;57.632;11.962;2023-03-04T05:43:54;100871.84;;;18.42;35.29
13011;BME280;6786;57.632;11.962;2023-03-04T05:46:22;100873.81;;;18.40;35.28
13011;BME280;6786;57.632;11.962;2023-03-04T05:48:52;100790.78;;;17.88;35.37
13011;BME280;6786;57.632;11.962;2023-03-04T05:51:21;100874.53;;;18.42;35.21
13011;BME280;6786;57.632;11.962;2023-03-04T05:53:50;100880.84;;;18.41;35.16
13011;BME280;6786;57.632;11.962;2023-03-04T05:56:19;100887.91;;;18.42;35.09
13011;BME280;6786;57.632;11.962;2023-03-04T05:58:47;100879.28;;;18.38;35.13
13011;BME280;6786;57.632;11.962;2023-03-04T06:01:15;100882.81;;;18.39;35.12
13011;BME280;6786;57.632;11.962;2023-03-04T06:03:43;100882.81;;;18.39;35.14
13011;BME280;6786;57.632;11.962;2023-03-04T06:06:14;100885.38;;;18.40;35.18
13011;BME280;6786;57.632;11.962;2023-03-04T06:08:43;100882.81;;;18.39;35.26
13011;BME280;6786;57.632;11.962;2023-03-04T06:11:12;100893.25;;;18.42;35.23
13011;BME280;6786;57.632;11.962;2023-03-04T06:13:40;100889.84;;;18.40;35.34
13011;BME280;6786;57.632;11.962;2023-03-04T06:16:08;100886.44;;;18.38;35.21
13011;BME280;6786;57.632;11.962;2023-03-04T06:18:37;100895.22;;;18.40;35.20
13011;BME280;6786;57.632;11.962;2023-03-04T06:21:05;100902.25;;;18.41;35.08
13011;BME280;6786;57.632;11.962;2023-03-04T06:23:33;100911.25;;;18.40;35.09
13011;BME280;6786;57.632;11.962;2023-03-04T06:26:03;100770.94;;;17.58;35.11
13011;BME280;6786;57.632;11.962;2023-03-04T06:28:35;100919.41;;;18.38;35.08
13011;BME280;6786;57.632;11.962;2023-03-04T06:31:03;100923.66;;;18.41;35.07
13011;BME280;6786;57.632;11.962;2023-03-04T06:33:31;100926.34;;;18.41;35.21
13011;BME280;6786;57.632;11.962;2023-03-04T06:36:00;100937.03;;;18.41;35.19
13011;BME280;6786;57.632;11.962;2023-03-04T06:38:28;100933.41;;;18.42;35.25
13011;BME280;6786;57.632;11.962;2023-03-04T06:41:06;100944.13;;;18.42;35.06
13011;BME280;6786;57.632;11.962;2023-03-04T06:43:35;100945.06;;;18.41;35.13
13011;BME280;6786;57.632;11.962;2023-03-04T06:46:04;100946.78;;;18.42;35.30
13011;BME280;6786;57.632;11.962;2023-03-04T06:48:32;100951.28;;;18.41;35.21
13011;BME280;6786;57.632;11.962;2023-03-04T06:51:04;100962.84;;;18.42;35.09
13011;BME280;6786;57.632;11.962;2023-03-04T06:53:33;100957.50;;;18.42;35.21
13011;BME280;6786;57.632;11.962;2023-03-04T06:56:01;100952.13;;;18.42;35.08
13011;BME280;6786;57.632;11.962;2023-03-04T06:58:31;100965.53;;;18.42;35.24
13011;BME280;6786;57.632;11.962;2023-03-04T07:01:09;100968.19;;;18.42;34.95
13011;BME280;6786;57.632;11.962;2023-03-04T07:03:38;100967.47;;;18.40;35.38
13011;BME280;6786;57.632;11.962;2023-03-04T07:06:07;100879.13;;;17.86;35.10
13011;BME280;6786;57.632;11.962;2023-03-04T07:08:36;100966.47;;;18.41;34.98
13011;BME280;6786;57.632;11.962;2023-03-04T07:11:04;100973.78;;;18.39;35.15
13011;BME280;6786;57.632;11.962;2023-03-04T07:13:34;100977.19;;;18.41;34.99
13011;BME280;6786;57.632;11.962;2023-03-04T07:16:05;100985.22;;;18.41;34.99
13011;BME280;6786;57.632;11.962;2023-03-04T07:18:33;100972.06;;;18.38;35.04
13011;BME280;6786;57.632;11.962;2023-03-04T07:21:02;100967.59;;;18.38;34.99
13011;BME280;6786;57.632;11.962;2023-03-04T07:23:30;100975.38;;;18.41;34.93
13011;BME280;6786;57.632;11.962;2023-03-04T07:25:59;100970.13;;;18.40;35.17
13011;BME280;6786;57.632;11.962;2023-03-04T07:28:27;100977.19;;;18.41;35.01
13011;BME280;6786;57.632;11.962;2023-03-04T07:31:06;100964.78;;;18.40;35.04
13011;BME280;6786;57.632;11.962;2023-03-04T07:33:34;100860.16;;;17.78;34.89
13011;BME280;6786;57.632;11.962;2023-03-04T07:36:02;100973.78;;;18.39;34.85
13011;BME280;6786;57.632;11.962;2023-03-04T07:38:31;100973.78;;;18.39;34.93
13011;BME280;6786;57.632;11.962;2023-03-04T07:40:59;100975.50;;;18.40;34.81
13011;BME280;6786;57.632;11.962;2023-03-04T07:43:28;100791.81;;;17.31;35.15
13011;BME280;6786;57.632;11.962;2023-03-04T07:46:01;100980.84;;;18.40;34.82
13011;BME280;6786;57.632;11.962;2023-03-04T07:48:29;100971.81;;;18.41;34.82
13011;BME280;6786;57.632;11.962;2023-03-04T07:51:08;100873.41;;;17.80;34.53
13011;BME280;6786;57.632;11.962;2023-03-04T07:53:38;100979.84;;;18.41;34.69
13011;BME280;6786;57.632;11.962;2023-03-04T07:56:09;100976.19;;;18.31;34.73
13011;BME280;6786;57.632;11.962;2023-03-04T07:58:38;101007.59;;;18.40;34.62
13011;BME280;6786;57.632;11.962;2023-03-04T08:01:11;100996.91;;;18.40;34.52
13011;BME280;6786;57.632;11.962;2023-03-04T08:03:40;101023.66;;;18.40;34.61
13011;BME280;6786;57.632;11.962;2023-03-04T08:06:11;101031.56;;;18.41;34.56
13011;BME280;6786;57.632;11.962;2023-03-04T08:08:40;100885.94;;;17.68;34.73
13011;BME280;6786;57.632;11.962;2023-03-04T08:11:12;101000.56;;;18.39;34.68
13011;BME280;6786;57.632;11.962;2023-03-04T08:13:41;100922.41;;;17.80;34.66
13011;BME280;6786;57.632;11.962;2023-03-04T08:16:11;101024.66;;;18.39;34.62
13011;BME280;6786;57.632;11.962;2023-03-04T08:18:42;101011.25;;;18.39;34.55
13011;BME280;6786;57.632;11.962;2023-03-04T08:21:10;101029.00;;;18.40;34.57
13011;BME280;6786;57.632;11.962;2023-03-04T08:23:39;100872.94;;;17.41;34.39
13011;BME280;6786;57.632;11.962;2023-03-04T08:26:10;101041.66;;;18.38;34.55
13011;BME280;6786;57.632;11.962;2023-03-04T08:28:40;101047.75;;;18.40;34.40
13011;BME280;6786;57.632;11.962;2023-03-04T08:31:08;101029.00;;;18.40;34.42
13011;BME280;6786;57.632;11.962;2023-03-04T08:33:38;101037.78;;;18.42;34.51
13011;BME280;6786;57.632;11.962;2023-03-04T08:36:07;101043.25;;;18.40;34.55
13011;BME280;6786;57.632;11.962;2023-03-04T08:38:35;101041.28;;;18.42;34.47
13011;BME280;6786;57.632;11.962;2023-03-04T08:41:04;101042.28;;;18.41;34.60
13011;BME280;6786;57.632;11.962;2023-03-04T08:43:32;101042.28;;;18.41;34.44
13011;BME280;6786;57.632;11.962;2023-03-04T08:46:01;100865.41;;;17.24;34.59
13011;BME280;6786;57.632;11.962;2023-03-04T08:48:30;100988.63;;;18.10;34.33
13011;BME280;6786;57.632;11.962;2023-03-04T08:51:05;101053.84;;;18.42;34.37
13011;BME280;6786;57.632;11.962;2023-03-04T08:53:34;101053.84;;;18.42;34.58
13011;BME280;6786;57.632;11.962;2023-03-04T08:56:02;101055.53;;;18.43;34.41
13011;BME280;6786;57.632;11.962;2023-03-04T08:58:30;100861.97;;;17.33;34.46
13011;BME280;6786;57.632;11.962;2023-03-04T09:00:59;101050.19;;;18.43;34.42
13011;BME280;6786;57.632;11.962;2023-03-04T09:03:27;101053.84;;;18.42;34.38
13011;BME280;6786;57.632;11.962;2023-03-04T09:05:56;101055.53;;;18.43;34.21
13011;BME280;6786;57.632;11.962;2023-03-04T09:08:25;101069.91;;;18.42;34.37
13011;BME280;6786;57.632;11.962;2023-03-04T09:10:54;101071.84;;;18.40;34.26
13011;BME280;6786;57.632;11.962;2023-03-04T09:13:23;101066.47;;;18.40;34.28
13011;BME280;6786;57.632;11.962;2023-03-04T09:15:52;101064.53;;;18.42;34.18
13011;BME280;6786;57.632;11.962;2023-03-04T09:18:22;101069.03;;;18.41;34.27
13011;BME280;6786;57.632;11.962;2023-03-04T09:20:50;101080.59;;;18.42;34.19
13011;BME280;6786;57.632;11.962;2023-03-04T09:23:19;101064.53;;;18.42;34.15
13011;BME280;6786;57.632;11.962;2023-03-04T09:25:49;101066.22;;;18.43;34.25
13011;BME280;6786;57.632;11.962;2023-03-04T09:28:18;100875.34;;;17.33;34.18
13011;BME280;6786;57.632;11.962;2023-03-04T09:30:46;101058.19;;;18.43;34.32
13011;BME280;6786;57.632;11.962;2023-03-04T09:33:15;101062.56;;;18.44;34.24
13011;BME280;6786;57.632;11.962;2023-03-04T09:35:43;101057.22;;;18.44;34.23
13011;BME280;6786;57.632;11.962;2023-03-04T09:38:12;101063.56;;;18.43;34.22
13011;BME280;6786;57.632;11.962;2023-03-04T09:40:42;101051.03;;;18.43;34.12
13011;BME280;6786;57.632;11.962;2023-03-04T09:43:17;101044.81;;;18.43;34.15
13011;BME280;6786;57.632;11.962;2023-03-04T09:45:49;101028.75;;;18.43;34.14
13011;BME280;6786;57.632;11.962;2023-03-04T09:48:21;101050.19;;;18.43;34.23
13011;BME280;6786;57.632;11.962;2023-03-04T09:51:01;101050.19;;;18.43;33.92
13011;BME280;6786;57.632;11.962;2023-03-04T09:53:39;101044.81;;;18.43;34.25
13011;BME280;6786;57.632;11.962;2023-03-04T09:56:13;101038.84;;;18.39;34.05
13011;BME280;6786;57.632;11.962;2023-03-04T09:58:50;101032.16;;;18.34;34.03
13011;BME280;6786;57.632;11.962;2023-03-04T10:01:25;101042.41;;;18.40;34.19
13011;BME280;6786;57.632;11.962;2023-03-04T10:03:59;101037.78;;;18.42;34.06
13011;BME280;6786;57.632;11.962;2023-03-04T10:06:30;101044.09;;;18.41;34.13
13011;BME280;6786;57.632;11.962;2023-03-04T10:09:00;101020.69;;;18.32;34.12
13011;BME280;6786;57.632;11.962;2023-03-04T10:11:32;101029.75;;;18.42;34.22
13011;BME280;6786;57.632;11.962;2023-03-04T10:14:14;101032.44;;;18.42;33.87
13011;BME280;6786;57.632;11.962;2023-03-04T10:16:46;101052.97;;;18.41;34.12
13011;BME280;6786;57.632;11.962;2023-03-04T10:19:28;101043.13;;;18.42;33.73
13011;BME280;6786;57.632;11.962;2023-03-04T10:21:58;101048.59;;;18.40;33.96
13011;BME280;6786;57.632;11.962;2023-03-04T10:24:28;101036.75;;;18.32;34.02
13011;BME280;6786;57.632;11.962;2023-03-04T10:27:00;101045.06;;;18.40;34.12
13011;BME280;6786;57.632;11.962;2023-03-04T10:29:32;100888.75;;;17.44;34.10
13011;BME280;6786;57.632;11.962;2023-03-04T10:32:00;101037.03;;;18.40;34.10
13011;BME280;6786;57.632;11.962;2023-03-04T10:34:28;101041.41;;;18.41;33.92
13011;BME280;6786;57.632;11.962;2023-03-04T10:36:59;101030.69;;;18.41;33.96
13011;BME280;6786;57.632;11.962;2023-03-04T10:39:30;101021.31;;;18.35;33.93
13011;BME280;6786;57.632;11.962;2023-03-04T10:42:00;101036.06;;;18.41;33.98
13011;BME280;6786;57.632;11.962;2023-03-04T10:44:30;101018.31;;;18.40;33.96
13011;BME280;6786;57.632;11.962;2023-03-04T10:47:00;100855.22;;;17.40;33.96
13011;BME280;6786;57.632;11.962;2023-03-04T10:49:29;101014.06;;;18.37;34.00
13011;BME280;6786;57.632;11.962;2023-03-04T10:52:01;101023.66;;;18.40;33.97
13011;BME280;6786;57.632;11.962;2023-03-04T10:54:31;101021.97;;;18.39;33.85
13011;BME280;6786;57.632;11.962;2023-03-04T10:57:03;101007.84;;;18.37;33.87
13011;BME280;6786;57.632;11.962;2023-03-04T10:59:47;101007.59;;;18.40;33.28
13011;BME280;6786;57.632;11.962;2023-03-04T11:02:22;101005.91;;;18.39;33.75
13011;BME280;6786;57.632;11.962;2023-03-04T11:04:54;100905.75;;;17.77;33.84
13011;BME280;6786;57.632;11.962;2023-03-04T11:07:24;100893.25;;;17.66;33.85
13011;BME280;6786;57.632;11.962;2023-03-04T11:09:52;101015.75;;;18.38;33.73
13011;BME280;6786;57.632;11.962;2023-03-04T11:12:32;101014.91;;;18.38;33.46
13011;BME280;6786;57.632;11.962;2023-03-04T11:15:02;101020.25;;;18.38;33.80
13011;BME280;6786;57.632;11.962;2023-03-04T11:17:41;101009.53;;;18.38;33.17
13011;BME280;6786;57.632;11.962;2023-03-04T11:20:15;101014.91;;;18.38;33.71
13011;BME280;6786;57.632;11.962;2023-03-04T11:22:45;101014.91;;;18.38;33.55
13011;BME280;6786;57.632;11.962;2023-03-04T11:25:21;101012.09;;;18.39;33.38
13011;BME280;6786;57.632;11.962;2023-03-04T11:27:53;101021.97;;;18.39;33.58
13011;BME280;6786;57.632;11.962;2023-03-04T11:30:30;101022.78;;;18.39;33.55
13011;BME280;6786;57.632;11.962;2023-03-04T11:33:23;100993.25;;;18.30;33.02
13011;BME280;6786;57.632;11.962;2023-03-04T11:36:07;100919.59;;;17.82;33.35
13011;BME280;6786;57.632;11.962;2023-03-04T11:38:43;101008.59;;;18.39;33.57
13011;BME280;6786;57.632;11.962;2023-03-04T11:41:16;101003.22;;;18.39;33.54
13011;BME280;6786;57.632;11.962;2023-03-04T11:43:47;101006.88;;;18.38;33.70
13011;BME280;6786;57.632;11.962;2023-03-04T11:46:38;101005.91;;;18.39;33.08
13011;BME280;6786;57.632;11.962;2023-03-04T11:52:41;101000.56;;;18.39;33.26
13011;BME280;6786;57.632;11.962;2023-03-04T11:55:24;100998.84;;;18.38;33.34
13011;BME280;6786;57.632;11.962;2023-03-04T11:58:08;101003.34;;;18.37;33.47
13011;BME280;6786;57.632;11.962;2023-03-04T12:00:46;100982.03;;;18.36;33.72
13011;BME280;6786;57.632;11.962;2023-03-04T12:03:42;100991.78;;;18.37;32.93
13011;BME280;6786;57.632;11.962;2023-03-04T12:06:19;100982.78;;;18.38;33.66
13011;BME280;6786;57.632;11.962;2023-03-04T12:08:59;100987.19;;;18.39;33.50
13011;BME280;6786;57.632;11.962;2023-03-04T12:11:35;100988.13;;;18.38;33.64
13011;BME280;6786;57.632;11.962;2023-03-04T12:14:21;100988.13;;;18.38;33.13
13011;BME280;6786;57.632;11.962;2023-03-04T12:22:45;100972.06;;;18.38;33.55
13011;BME280;6786;57.632;11.962;2023-03-04T12:25:37;100971.25;;;18.37;33.04
13011;BME280;6786;57.632;11.962;2023-03-04T12:28:25;100965.03;;;18.37;33.30
13011;BME280;6786;57.632;11.962;2023-03-04T12:31:06;100972.06;;;18.38;33.46
13011;BME280;6786;57.632;11.962;2023-03-04T12:33:54;100873.16;;;17.83;33.42
13011;BME280;6786;57.632;11.962;2023-03-04T12:36:30;100966.94;;;18.35;33.45
13011;BME280;6786;57.632;11.962;2023-03-04T12:39:14;100971.59;;;18.33;33.05
13011;BME280;6786;57.632;11.962;2023-03-04T12:41:56;100965.25;;;18.34;33.27
13011;BME280;6786;57.632;11.962;2023-03-04T12:44:30;100963.56;;;18.33;33.51
13011;BME280;6786;57.632;11.962;2023-03-04T12:47:18;100957.22;;;18.34;32.92
13011;BME280;6786;57.632;11.962;2023-03-04T12:50:16;100945.78;;;18.32;32.94
13011;BME280;6786;57.632;11.962;2023-03-04T12:52:53;100945.53;;;18.35;33.43
13011;BME280;6786;57.632;11.962;2023-03-04T12:55:30;100945.78;;;18.32;33.32
13011;BME280;6786;57.632;11.962;2023-03-04T12:58:04;100957.97;;;18.36;33.45
13011;BME280;6786;57.632;11.962;2023-03-04T13:00:42;100948.97;;;18.37;33.29
13011;BME280;6786;57.632;11.962;2023-03-04T13:03:18;100946.31;;;18.37;33.42
13011;BME280;6786;57.632;11.962;2023-03-04T13:06:03;100939.13;;;18.37;33.03
13011;BME280;6786;57.632;11.962;2023-03-04T13:08:39;100950.66;;;18.38;33.44
13011;BME280;6786;57.632;11.962;2023-03-04T13:11:42;100938.28;;;18.37;32.85
13011;BME280;6786;57.632;11.962;2023-03-04T13:14:26;100945.31;;;18.38;33.07
13011;BME280;6786;57.632;11.962;2023-03-04T13:16:56;100932.94;;;18.37;33.26
13011;BME280;6786;57.632;11.962;2023-03-04T13:19:49;100932.41;;;18.32;32.75